Time;durP1;ratioP1;P1;durP2;ratioP2;P2;SDS_P1;SDS_P2;PMS_P1;PMS_P2;Temp;Humidity;BMP_temperature;BMP_pressure;BME280_temperature;BME280_humidity;BME280_pressure;Samples;Min_cycle;Max_cycle;Signal;HPM_P1;HPM_P2
2022/04/28 00:02:38;;;;;;;6.50;4.53;;;;;;;-145.68;100.00;63218.00;10452072;28;20220;-58
2022/04/28 00:08:38;;;;;;;10.40;5.70;;;;;;;-145.68;100.00;63218.00;10451872;28;20195;-57
2022/04/28 00:14:37;;;;;;;7.17;5.17;;;;;;;-145.68;100.00;63218.00;10446501;28;20623;-58
2022/04/28 00:20:36;;;;;;;7.83;4.47;;;;;;;-145.68;100.00;63218.00;10452021;28;20203;-55
2022/04/28 00:26:35;;;;;;;13.67;5.73;;;;;;;-145.68;100.00;63218.00;10451659;28;20227;-59
2022/04/28 00:32:34;;;;;;;6.70;5.53;;;;;;;-145.68;100.00;63218.00;10451444;28;20294;-59
2022/04/28 00:38:33;;;;;;;9.37;5.40;;;;;;;-145.68;100.00;63218.00;10433582;28;20204;-56
2022/04/28 00:44:45;;;;;;;12.67;5.30;;;;;;;-145.68;100.00;63218.00;10451381;28;20900;-59
2022/04/28 00:50:44;;;;;;;10.93;5.57;;;;;;;-145.68;100.00;63218.00;10451219;28;20261;-58
2022/04/28 00:56:43;;;;;;;7.87;6.33;;;;;;;-145.68;100.00;63218.00;10451160;28;20265;-57
2022/04/28 01:02:42;;;;;;;10.73;6.50;;;;;;;-145.68;100.00;63218.00;10432670;28;20219;-53
2022/04/28 01:08:41;;;;;;;8.10;6.00;;;;;;;-145.68;100.00;63218.00;10432061;28;20196;-55
2022/04/28 01:14:41;;;;;;;6.90;5.83;;;;;;;-145.68;100.00;63218.00;10395420;28;20213;-53
2022/04/28 01:20:40;;;;;;;11.00;6.73;;;;;;;-145.68;100.00;63218.00;10395723;28;20200;-55
2022/04/28 01:26:39;;;;;;;10.13;6.67;;;;;;;-145.68;100.00;63218.00;10395590;28;20765;-55
2022/04/28 01:32:38;;;;;;;8.67;6.43;;;;;;;-145.68;100.00;63218.00;10379193;28;20686;-57
2022/04/28 01:38:37;;;;;;;10.13;6.97;;;;;;;-145.68;100.00;63218.00;10395206;28;20200;-53
2022/04/28 01:44:36;;;;;;;8.33;5.90;;;;;;;-145.68;100.00;63218.00;10394742;28;20583;-52
2022/04/28 01:50:35;;;;;;;11.73;6.23;;;;;;;-145.68;100.00;63218.00;10395102;28;20188;-52
2022/04/28 01:56:39;;;;;;;7.00;5.90;;;;;;;-145.68;100.00;63218.00;10412590;28;20197;-54
2022/04/28 02:02:56;;;;;;;8.20;6.03;;;;;;;-145.68;100.00;63218.00;10413169;28;20224;-52
2022/04/28 02:08:55;;;;;;;10.53;6.53;;;;;;;-145.68;100.00;63218.00;10412220;28;20627;-55
2022/04/28 02:14:54;;;;;;;12.63;6.67;;;;;;;-145.68;100.00;63218.00;10393910;28;20861;-56
2022/04/28 02:21:16;;;;;;;12.47;6.53;;;;;;;-145.68;100.00;63218.00;10408546;28;20205;-53
2022/04/28 02:27:15;;;;;;;9.47;6.40;;;;;;;-145.68;100.00;63218.00;10411275;28;20587;-52
2022/04/28 02:33:14;;;;;;;8.30;5.63;;;;;;;-145.68;100.00;63218.00;10411131;28;20610;-55
2022/04/28 02:39:33;;;;;;;8.53;5.90;;;;;;;-145.68;100.00;63218.00;10410523;28;20197;-55
2022/04/28 02:45:32;;;;;;;6.57;4.87;;;;;;;-145.68;100.00;63218.00;10410626;28;20238;-58
2022/04/28 02:51:31;;;;;;;8.93;6.47;;;;;;;-145.68;100.00;63218.00;10410628;28;20193;-58
2022/04/28 02:57:30;;;;;;;9.80;6.67;;;;;;;-145.68;100.00;63218.00;10392582;28;20193;-56
2022/04/28 03:03:30;;;;;;;10.27;7.00;;;;;;;-145.68;100.00;63218.00;10396646;28;20227;-55
2022/04/28 03:15:47;;;;;;;8.57;6.03;;;;;;;-145.68;100.00;63218.00;10432685;28;20219;-56
2022/04/28 03:21:48;;;;;;;8.33;6.17;;;;;;;-145.68;100.00;63218.00;10432824;28;20545;-57
2022/04/28 03:27:47;;;;;;;9.67;6.60;;;;;;;-145.68;100.00;63218.00;10432018;28;20237;-54
2022/04/28 03:33:46;;;;;;;8.23;6.17;;;;;;;-145.68;100.00;63218.00;10431921;28;20318;-54
2022/04/28 03:39:45;;;;;;;10.73;6.40;;;;;;;-145.68;100.00;63218.00;10432156;28;20202;-56
2022/04/28 03:45:44;;;;;;;9.77;7.23;;;;;;;-145.68;100.00;63218.00;10431509;28;20235;-54
2022/04/28 03:51:50;;;;;;;6.70;4.87;;;;;;;-145.68;100.00;63218.00;10431511;28;20617;-57
2022/04/28 03:57:49;;;;;;;10.33;8.00;;;;;;;-145.68;100.00;63218.00;10431127;28;20660;-58
2022/04/28 04:03:49;;;;;;;10.93;6.07;;;;;;;-145.68;100.00;63218.00;10433655;28;20745;-52
2022/04/28 04:09:48;;;;;;;10.30;5.80;;;;;;;-145.68;100.00;63218.00;10431112;28;20190;-54
2022/04/28 04:15:52;;;;;;;7.73;6.53;;;;;;;-145.68;100.00;63218.00;10431013;28;20319;-52
2022/04/28 04:22:17;;;;;;;9.60;6.90;;;;;;;-145.68;100.00;63218.00;10448797;28;20584;-54
2022/04/28 04:28:16;;;;;;;7.83;5.63;;;;;;;-145.68;100.00;63218.00;10430825;28;20192;-54
2022/04/28 04:34:28;;;;;;;8.80;6.37;;;;;;;-145.68;100.00;63218.00;10430938;28;20678;-55
2022/04/28 04:40:27;;;;;;;6.03;4.53;;;;;;;-145.68;100.00;63218.00;10434792;28;20184;-54
2022/04/28 04:46:27;;;;;;;11.57;6.90;;;;;;;-145.68;100.00;63218.00;10438955;28;20281;-54
2022/04/28 04:52:46;;;;;;;8.70;5.67;;;;;;;-145.68;100.00;63218.00;10455913;28;20334;-54
2022/04/28 04:58:48;;;;;;;8.40;5.10;;;;;;;-145.68;100.00;63218.00;10455250;28;20274;-52
2022/04/28 05:04:47;;;;;;;7.83;4.27;;;;;;;-145.68;100.00;63218.00;10436841;28;20219;-52
2022/04/28 05:11:06;;;;;;;8.30;4.40;;;;;;;-145.68;100.00;63218.00;10435689;28;20191;-54
2022/04/28 05:17:05;;;;;;;4.57;3.90;;;;;;;-145.68;100.00;63218.00;10441911;28;20555;-56
2022/04/28 05:23:15;;;;;;;6.43;4.93;;;;;;;-145.68;100.00;63218.00;10453959;28;20215;-56
2022/04/28 05:29:32;;;;;;;8.13;4.50;;;;;;;-145.68;100.00;63218.00;10449906;28;20212;-56
2022/04/28 05:36:03;;;;;;;10.13;5.50;;;;;;;-145.68;100.00;63218.00;10436481;28;20756;-57
2022/04/28 05:42:04;;;;;;;5.50;4.43;;;;;;;-145.68;100.00;63218.00;10447817;28;20202;-57
2022/04/28 05:48:03;;;;;;;11.33;5.33;;;;;;;-145.68;100.00;63218.00;10454471;28;20219;-54
2022/04/28 05:54:08;;;;;;;9.73;4.70;;;;;;;-145.68;100.00;63218.00;10436742;28;20210;-53
2022/04/28 06:00:07;;;;;;;8.90;4.60;;;;;;;-145.68;100.00;63218.00;10436177;28;20219;-56
2022/04/28 06:06:15;;;;;;;5.07;3.90;;;;;;;-145.68;100.00;63218.00;10453703;28;20230;-54
2022/04/28 06:12:16;;;;;;;4.90;3.93;;;;;;;-145.68;100.00;63218.00;10435254;28;20212;-53
2022/04/28 06:18:34;;;;;;;5.23;3.90;;;;;;;-145.68;100.00;63218.00;10450797;28;20192;-55
2022/04/28 06:24:52;;;;;;;7.33;4.27;;;;;;;-145.68;100.00;63218.00;10450959;28;20212;-54
2022/04/28 06:30:53;;;;;;;3.90;3.53;;;;;;;-145.68;100.00;63218.00;10450883;28;20188;-52
2022/04/28 06:37:00;;;;;;;5.03;3.65;;;;;;;-145.68;100.00;63218.00;10453465;22;20290;-57
2022/04/28 06:43:02;;;;;;;5.45;4.10;;;;;;;-145.68;100.00;63218.00;10438485;28;20595;-58
2022/04/28 06:49:02;;;;;;;5.03;3.38;;;;;;;-145.68;100.00;63218.00;10456069;28;20589;-60
2022/04/28 06:55:19;;;;;;;6.03;4.32;;;;;;;-145.68;100.00;63218.00;10455539;28;20207;-57
2022/04/28 07:01:19;;;;;;;8.43;4.60;;;;;;;-145.68;100.00;63218.00;10436616;28;20192;-54
2022/04/28 07:07:18;;;;;;;6.80;4.18;;;;;;;-145.68;100.00;63218.00;10404698;28;20221;-55
2022/04/28 07:13:19;;;;;;;6.13;4.05;;;;;;;-145.68;100.00;63218.00;10390666;28;20670;-56
2022/04/28 07:19:37;;;;;;;8.00;3.83;;;;;;;-145.68;100.00;63218.00;10408719;28;20193;-55
2022/04/28 07:25:36;;;;;;;4.70;3.97;;;;;;;-145.68;100.00;63218.00;10389194;28;20266;-58
2022/04/28 07:31:36;;;;;;;8.98;4.18;;;;;;;-145.68;100.00;63218.00;10390417;28;20196;-60
2022/04/28 07:37:43;;;;;;;7.35;4.47;;;;;;;-145.68;100.00;63218.00;10407598;28;20640;-57
2022/04/28 07:44:18;;;;;;;5.28;4.00;;;;;;;-145.68;100.00;63218.00;10330200;28;20212;-58
2022/04/28 07:50:16;;;;;;;5.25;4.15;;;;;;;-145.68;100.00;63218.00;10402647;28;20180;-59
2022/04/28 07:56:18;;;;;;;7.97;4.43;;;;;;;-145.68;100.00;63218.00;10402080;28;20205;-60
2022/04/28 08:02:20;;;;;;;5.85;4.50;;;;;;;-145.68;100.00;63218.00;10389795;28;20192;-59
2022/04/28 08:08:22;;;;;;;7.00;3.38;;;;;;;-145.68;100.00;63218.00;10389550;28;20220;-60
2022/04/28 08:14:24;;;;;;;6.82;4.50;;;;;;;-145.68;100.00;63218.00;10388949;28;20667;-58
2022/04/28 08:20:24;;;;;;;6.28;4.53;;;;;;;-145.68;100.00;63218.00;10389218;28;20203;-58
2022/04/28 08:26:24;;;;;;;5.65;4.13;;;;;;;-145.68;100.00;63218.00;10387819;28;20267;-58
2022/04/28 08:32:24;;;;;;;6.90;4.25;;;;;;;-145.68;100.00;63218.00;10388151;28;20189;-59
2022/04/28 08:38:24;;;;;;;6.20;4.47;;;;;;;-145.68;100.00;63218.00;10359807;28;20282;-57
2022/04/28 08:44:24;;;;;;;7.22;5.22;;;;;;;-145.68;100.00;63218.00;10346927;28;20225;-59
2022/04/28 08:50:34;;;;;;;9.13;5.60;;;;;;;-145.68;100.00;63218.00;10347581;28;20193;-59
2022/04/28 08:56:40;;;;;;;6.65;4.80;;;;;;;-145.68;100.00;63218.00;10363753;28;20247;-59
2022/04/28 09:02:40;;;;;;;6.80;4.93;;;;;;;-145.68;100.00;63218.00;10376242;28;20197;-58
2022/04/28 09:08:50;;;;;;;6.40;5.03;;;;;;;-145.68;100.00;63218.00;10379654;28;20217;-59
2022/04/28 09:15:10;;;;;;;4.82;4.32;;;;;;;-145.68;100.00;63218.00;10364760;28;20581;-59
2022/04/28 09:21:12;;;;;;;6.80;5.45;;;;;;;-145.68;100.00;63218.00;10379414;28;20197;-60
2022/04/28 09:27:13;;;;;;;11.80;5.57;;;;;;;-145.68;100.00;63218.00;10351123;28;20711;-59
2022/04/28 09:33:12;;;;;;;7.70;4.65;;;;;;;-145.68;100.00;63218.00;10377997;28;20193;-60
2022/04/28 09:45:48;;;;;;;6.93;5.97;;;;;;;-145.68;100.00;63218.00;10394383;28;20598;-59
2022/04/28 09:51:49;;;;;;;7.32;6.53;;;;;;;-145.68;100.00;63218.00;10394485;28;20203;-59
2022/04/28 09:57:53;;;;;;;7.07;6.10;;;;;;;-145.68;100.00;63218.00;10378136;28;20200;-58
2022/04/28 10:03:53;;;;;;;9.38;7.03;;;;;;;-145.68;100.00;63218.00;10391777;28;20674;-59
2022/04/28 10:09:57;;;;;;;9.55;7.25;;;;;;;-145.68;100.00;63218.00;10393983;28;20201;-59
2022/04/28 10:15:59;;;;;;;9.77;6.32;;;;;;;-145.68;100.00;63218.00;10393296;28;20211;-58
2022/04/28 10:22:03;;;;;;;7.57;6.30;;;;;;;-145.68;100.00;63218.00;10393139;28;20295;-61
2022/04/28 10:35:07;;;;;;;11.93;7.25;;;;;;;-145.68;100.00;63218.00;10408806;28;20213;-59
2022/04/28 10:41:16;;;;;;;10.52;7.57;;;;;;;-145.68;100.00;63218.00;10394489;28;20283;-60
2022/04/28 10:47:20;;;;;;;10.20;7.20;;;;;;;-145.68;100.00;63218.00;10391623;28;20250;-61
2022/04/28 10:53:23;;;;;;;11.70;8.18;;;;;;;-145.68;100.00;63218.00;10409835;28;20228;-61
2022/04/28 10:59:27;;;;;;;7.72;6.93;;;;;;;-145.68;100.00;63218.00;10409034;28;20212;-58
2022/04/28 11:05:27;;;;;;;10.00;7.05;;;;;;;-145.68;100.00;63218.00;10409384;28;20371;-60
2022/04/28 11:11:29;;;;;;;9.70;8.05;;;;;;;-145.68;100.00;63218.00;10407011;28;20314;-60
2022/04/28 11:17:29;;;;;;;10.85;8.40;;;;;;;-145.68;100.00;63218.00;10407847;28;20208;-58
2022/04/28 11:23:31;;;;;;;10.25;8.43;;;;;;;-145.68;100.00;63218.00;10408884;28;20207;-61
2022/04/28 11:29:31;;;;;;;9.77;8.70;;;;;;;-145.68;100.00;63218.00;10408076;28;20232;-60
2022/04/28 11:35:31;;;;;;;11.45;8.05;;;;;;;-145.68;100.00;63218.00;10407191;28;20614;-60
2022/04/28 11:41:32;;;;;;;12.48;9.48;;;;;;;-145.68;100.00;63218.00;10406152;28;20215;-59
2022/04/28 11:47:45;;;;;;;16.52;10.80;;;;;;;-145.68;100.00;63218.00;10407273;28;20259;-57
2022/04/28 11:53:54;;;;;;;14.75;11.05;;;;;;;-145.68;100.00;63218.00;10407182;28;20254;-58
2022/04/28 11:59:54;;;;;;;16.70;11.50;;;;;;;-145.68;100.00;63218.00;10407468;28;20199;-61
2022/04/28 12:05:53;;;;;;;14.85;11.27;;;;;;;-145.68;100.00;63218.00;10406964;28;20281;-57
2022/04/28 12:24:35;;;;;;;12.40;9.70;;;;;;;-145.68;100.00;63218.00;10406669;28;20197;-60
2022/04/28 12:30:52;;;;;;;12.10;9.07;;;;;;;-145.68;100.00;63218.00;10406536;28;20208;-59
2022/04/28 12:36:57;;;;;;;11.30;9.05;;;;;;;-145.68;100.00;63218.00;10406115;28;20327;-61
2022/04/28 12:42:57;;;;;;;10.13;8.77;;;;;;;-145.68;100.00;63218.00;10462368;23;20921;-58
2022/04/28 12:48:56;;;;;;;15.40;9.77;;;;;;;-145.68;100.00;63218.00;10442564;28;20271;-61
2022/04/28 12:55:14;;;;;;;16.02;9.73;;;;;;;-145.68;100.00;63218.00;10406288;28;20199;-61
2022/04/28 13:01:15;;;;;;;14.70;9.07;;;;;;;-145.68;100.00;63218.00;10410139;28;20220;-61
2022/04/28 13:07:13;;;;;;;13.40;8.55;;;;;;;-145.68;100.00;63218.00;10414050;28;20703;-62
2022/04/28 13:13:12;;;;;;;9.88;7.55;;;;;;;-145.68;100.00;63218.00;10413965;28;20263;-61
2022/04/28 13:19:11;;;;;;;9.13;7.07;;;;;;;-145.68;100.00;63218.00;10412933;28;20219;-62
2022/04/28 13:25:13;;;;;;;7.68;6.40;;;;;;;-145.68;100.00;63218.00;10413740;28;20663;-62
2022/04/28 13:31:15;;;;;;;15.40;9.18;;;;;;;-145.68;100.00;63218.00;10412469;28;20204;-59
2022/04/28 13:37:21;;;;;;;12.05;9.30;;;;;;;-145.68;100.00;63218.00;10416001;28;20850;-62
2022/04/28 13:43:20;;;;;;;13.68;9.65;;;;;;;-145.68;100.00;63218.00;10420820;28;20262;-61
2022/04/28 13:49:19;;;;;;;13.32;10.18;;;;;;;-145.68;100.00;63218.00;10410922;28;20212;-62
2022/04/28 13:55:18;;;;;;;14.32;9.23;;;;;;;-145.68;100.00;63218.00;10411756;28;20199;-62
2022/04/28 14:08:21;;;;;;;13.82;8.88;;;;;;;-145.68;100.00;63218.00;10412295;28;20220;-58
2022/04/28 14:14:20;;;;;;;17.88;7.53;;;;;;;-145.68;100.00;63218.00;10412157;28;20211;-58
2022/04/28 14:20:19;;;;;;;11.85;7.05;;;;;;;-145.68;100.00;63218.00;10410108;28;20640;-60
2022/04/28 14:26:19;;;;;;;9.35;7.85;;;;;;;-145.68;100.00;63218.00;10409920;28;20220;-61
2022/04/28 14:32:17;;;;;;;13.43;8.23;;;;;;;-145.68;100.00;63218.00;10411308;28;20207;-60
2022/04/28 14:38:18;;;;;;;9.82;8.57;;;;;;;-145.68;100.00;63218.00;10410723;28;20656;-58
2022/04/28 14:44:17;;;;;;;13.57;8.88;;;;;;;-145.68;100.00;63218.00;10410756;28;20276;-60
2022/04/28 14:56:34;;;;;;;11.13;7.47;;;;;;;-145.68;100.00;63218.00;10409903;28;20185;-60
2022/04/28 15:02:33;;;;;;;13.80;8.57;;;;;;;-145.68;100.00;63218.00;10408999;28;20275;-61
2022/04/28 15:15:59;;;;;;;10.32;6.82;;;;;;;-145.68;100.00;63218.00;10360287;28;20220;-61
2022/04/28 15:21:59;;;;;;;11.52;7.93;;;;;;;-145.68;100.00;63218.00;10370214;28;20275;-59
2022/04/28 15:28:02;;;;;;;13.63;8.13;;;;;;;-145.68;100.00;63218.00;10410622;28;20246;-62
2022/04/28 15:34:22;;;;;;;16.42;12.60;;;;;;;-145.68;100.00;63218.00;10404684;28;20532;-60
2022/04/28 15:40:21;;;;;;;21.00;14.45;;;;;;;-145.68;100.00;63218.00;10410799;28;20826;-60
2022/04/28 15:46:20;;;;;;;30.15;23.27;;;;;;;-145.68;100.00;63218.00;10380874;28;20245;-60
2022/04/28 15:52:19;;;;;;;14.93;11.25;;;;;;;-145.68;100.00;63218.00;10369859;28;20221;-60
2022/04/28 15:58:18;;;;;;;12.70;11.05;;;;;;;-145.68;100.00;63218.00;10395189;28;20200;-59
2022/04/28 16:04:17;;;;;;;12.32;9.25;;;;;;;-145.68;100.00;63218.00;10407199;28;20193;-59
2022/04/28 16:10:15;;;;;;;9.02;7.75;;;;;;;-145.68;100.00;63218.00;10408972;28;20699;-58
2022/04/28 16:16:14;;;;;;;10.93;8.15;;;;;;;-145.68;100.00;63218.00;10408196;28;20208;-60
2022/04/28 16:22:15;;;;;;;12.13;7.28;;;;;;;-145.68;100.00;63218.00;10408318;28;20298;-58
2022/04/28 16:28:14;;;;;;;8.80;7.03;;;;;;;-145.68;100.00;63218.00;10407103;28;20216;-60
2022/04/28 16:34:16;;;;;;;10.00;7.97;;;;;;;-145.68;100.00;63218.00;10406803;28;20193;-59
2022/04/28 16:40:15;;;;;;;12.30;7.47;;;;;;;-145.68;100.00;63218.00;10413725;28;20785;-58
2022/04/28 16:46:14;;;;;;;9.90;7.20;;;;;;;-145.68;100.00;63218.00;10414210;28;20188;-60
2022/04/28 16:52:13;;;;;;;9.38;7.47;;;;;;;-145.68;100.00;63218.00;10413132;28;20266;-59
2022/04/28 16:58:12;;;;;;;13.10;6.90;;;;;;;-145.68;100.00;63218.00;10410796;28;20500;-59
2022/04/28 17:04:13;;;;;;;13.05;7.13;;;;;;;-145.68;100.00;63218.00;10413016;28;20188;-57
2022/04/28 17:10:12;;;;;;;9.00;7.78;;;;;;;-145.68;100.00;63218.00;10412547;28;20216;-59
2022/04/28 17:16:15;;;;;;;9.23;6.85;;;;;;;-145.68;100.00;63218.00;10365054;28;20197;-59
2022/04/28 17:22:16;;;;;;;9.45;6.88;;;;;;;-145.68;100.00;63218.00;10373292;28;20213;-60
2022/04/28 17:28:15;;;;;;;10.15;6.85;;;;;;;-145.68;100.00;63218.00;10373909;28;20213;-60
2022/04/28 17:34:13;;;;;;;10.25;6.60;;;;;;;-145.68;100.00;63218.00;10373143;28;20565;-59
2022/04/28 17:40:13;;;;;;;8.27;6.20;;;;;;;-145.68;100.00;63218.00;10372635;28;20244;-59
2022/04/28 17:46:13;;;;;;;9.20;7.10;;;;;;;-145.68;100.00;63218.00;10371859;28;20331;-58
2022/04/28 17:52:12;;;;;;;10.70;7.68;;;;;;;-145.68;100.00;63218.00;10372731;28;20228;-58
2022/04/28 18:04:29;;;;;;;13.50;10.10;;;;;;;-145.68;100.00;63218.00;10357293;28;20201;-60
2022/04/28 18:10:28;;;;;;;13.68;8.95;;;;;;;-145.68;100.00;63218.00;10371847;28;20333;-60
2022/04/28 18:16:27;;;;;;;11.87;8.63;;;;;;;-145.68;100.00;63218.00;10371336;28;20664;-59
2022/04/28 18:22:26;;;;;;;14.77;8.63;;;;;;;-145.68;100.00;63218.00;10370269;28;20206;-57
2022/04/28 18:28:25;;;;;;;11.47;8.20;;;;;;;-145.68;100.00;63218.00;10370623;28;20866;-59
2022/04/28 18:34:24;;;;;;;13.63;8.13;;;;;;;-145.68;100.00;63218.00;10370553;28;20193;-56
2022/04/28 18:46:41;;;;;;;13.00;7.93;;;;;;;-145.68;100.00;63218.00;10418401;28;20185;-55
2022/04/28 18:52:39;;;;;;;10.57;7.50;;;;;;;-145.68;100.00;63218.00;10396421;28;20229;-57
2022/04/28 18:58:39;;;;;;;10.23;7.23;;;;;;;-145.68;100.00;63218.00;10389915;28;20213;-59
2022/04/28 19:04:40;;;;;;;10.23;6.97;;;;;;;-145.68;100.00;63218.00;10393634;28;20262;-60
2022/04/28 19:10:39;;;;;;;12.53;6.90;;;;;;;-145.68;100.00;63218.00;10396793;28;20217;-59
2022/04/28 19:16:38;;;;;;;10.43;7.53;;;;;;;-145.68;100.00;63218.00;10412409;28;20214;-60
2022/04/28 19:22:39;;;;;;;13.00;7.33;;;;;;;-145.68;100.00;63218.00;10383068;28;20296;-60
2022/04/28 19:28:38;;;;;;;14.00;6.83;;;;;;;-145.68;100.00;63218.00;10385089;28;20240;-57
2022/04/28 19:34:37;;;;;;;10.50;7.40;;;;;;;-145.68;100.00;63218.00;10401437;28;20255;-59
2022/04/28 19:40:37;;;;;;;15.73;8.87;;;;;;;-145.68;100.00;63218.00;10403554;28;20228;-58
2022/04/28 19:46:41;;;;;;;11.30;8.00;;;;;;;-145.68;100.00;63218.00;10469626;28;20745;-59
2022/04/28 19:52:41;;;;;;;9.10;7.43;;;;;;;-145.68;100.00;63218.00;10466763;28;20219;-60
2022/04/28 19:58:39;;;;;;;10.97;8.20;;;;;;;-145.68;100.00;63218.00;10471647;28;20235;-52
2022/04/28 20:04:39;;;;;;;10.07;7.40;;;;;;;-145.68;100.00;63218.00;10457682;28;20196;-54
2022/04/28 20:10:38;;;;;;;9.43;6.97;;;;;;;-145.68;100.00;63218.00;10447624;28;20305;-53
2022/04/28 20:16:38;;;;;;;11.93;8.27;;;;;;;-145.68;100.00;63218.00;10449655;28;20193;-53
2022/04/28 20:22:39;;;;;;;13.57;8.23;;;;;;;-145.68;100.00;63218.00;10443467;28;20215;-57
2022/04/28 20:28:43;;;;;;;13.63;8.67;;;;;;;-145.68;100.00;63218.00;10448352;28;21995;-53
2022/04/28 20:34:51;;;;;;;11.87;7.33;;;;;;;-145.68;100.00;63218.00;10448404;28;20203;-57
2022/04/28 20:40:50;;;;;;;12.20;7.27;;;;;;;-145.68;100.00;63218.00;10448554;28;20220;-56
2022/04/28 20:46:50;;;;;;;11.90;8.37;;;;;;;-145.68;100.00;63218.00;10448773;28;20203;-58
2022/04/28 20:52:48;;;;;;;11.63;7.93;;;;;;;-145.68;100.00;63218.00;10458104;28;20597;-53
2022/04/28 20:58:47;;;;;;;16.07;8.97;;;;;;;-145.68;100.00;63218.00;10494216;28;20215;-56
2022/04/28 21:04:46;;;;;;;11.10;7.80;;;;;;;-145.68;100.00;63218.00;10410267;28;20192;-56
2022/04/28 21:10:45;;;;;;;12.93;8.33;;;;;;;-145.68;100.00;63218.00;10406497;28;20229;-52
2022/04/28 21:16:44;;;;;;;18.60;9.80;;;;;;;-145.68;100.00;63218.00;10406404;28;20248;-52
2022/04/28 21:22:43;;;;;;;11.87;9.13;;;;;;;-145.68;100.00;63218.00;10409784;28;20204;-52
2022/04/28 21:28:43;;;;;;;10.47;8.47;;;;;;;-145.68;100.00;63218.00;10413574;28;20216;-52
2022/04/28 21:34:42;;;;;;;11.57;7.77;;;;;;;-145.68;100.00;63218.00;10414458;28;20202;-52
2022/04/28 21:40:41;;;;;;;15.13;7.53;;;;;;;-145.68;100.00;63218.00;10413605;28;20715;-52
2022/04/28 21:46:40;;;;;;;12.00;7.80;;;;;;;-145.68;100.00;63218.00;10413932;28;20215;-52
2022/04/28 21:52:42;;;;;;;15.03;9.17;;;;;;;-145.68;100.00;63218.00;10413170;28;20220;-52
2022/04/28 21:58:40;;;;;;;11.80;7.83;;;;;;;-145.68;100.00;63218.00;10412893;28;20581;-52
2022/04/28 22:11:12;;;;;;;16.27;9.50;;;;;;;-145.68;100.00;63218.00;10412128;28;20224;-56
2022/04/28 22:17:14;;;;;;;16.97;11.30;;;;;;;-145.68;100.00;63218.00;10412609;28;20607;-59
2022/04/28 22:23:12;;;;;;;13.47;9.20;;;;;;;-145.68;100.00;63218.00;10411303;28;20726;-59
2022/04/28 22:29:12;;;;;;;12.30;7.80;;;;;;;-145.68;100.00;63218.00;10411441;28;20699;-56
2022/04/28 22:35:12;;;;;;;14.57;10.83;;;;;;;-145.68;100.00;63218.00;10411486;28;20262;-54
2022/04/28 22:41:14;;;;;;;14.50;9.17;;;;;;;-145.68;100.00;63218.00;10411043;28;20236;-54
2022/04/28 22:47:14;;;;;;;15.60;9.80;;;;;;;-145.68;100.00;63218.00;10410746;28;20193;-59
2022/04/28 22:53:13;;;;;;;17.57;10.07;;;;;;;-145.68;100.00;63218.00;10410567;28;20232;-59
2022/04/28 22:59:12;;;;;;;18.63;11.80;;;;;;;-145.68;100.00;63218.00;10410428;28;20192;-54
2022/04/28 23:05:11;;;;;;;18.70;12.30;;;;;;;-145.68;100.00;63218.00;10410324;28;20196;-55
2022/04/28 23:11:11;;;;;;;18.30;11.50;;;;;;;-145.68;100.00;63218.00;10409808;28;20299;-55
2022/04/28 23:17:10;;;;;;;17.33;11.40;;;;;;;-145.68;100.00;63218.00;10410116;28;20184;-56
2022/04/28 23:23:09;;;;;;;20.27;13.07;;;;;;;-145.68;100.00;63218.00;10409407;28;20213;-53
2022/04/28 23:29:08;;;;;;;13.67;8.33;;;;;;;-145.68;100.00;63218.00;10409195;28;20677;-54
2022/04/28 23:47:47;;;;;;;21.47;13.37;;;;;;;-145.68;100.00;63218.00;10379751;28;20258;-53
